Time;durP1;ratioP1;P1;durP2;ratioP2;P2;SDS_P1;SDS_P2;PMS_P1;PMS_P2;Temp;Humidity;BMP_temperature;BMP_pressure;BME280_temperature;BME280_humidity;BME280_pressure;Samples;Min_cycle;Max_cycle;Signal;HPM_P1;HPM_P2
2021/09/01 00:00:31;;;;;;;10.70;3.87;;;;;;;;;;4346541;33;20162;-81
2021/09/01 00:03:02;;;;;;;15.38;4.30;;;;;;;;;;4346023;33;20540;-81
2021/09/01 00:05:27;;;;;;;11.82;3.78;;;;;;;;;;4346368;33;20586;-81
2021/09/01 00:07:52;;;;;;;10.50;3.72;;;;;;;;;;4345977;33;20222;-81
2021/09/01 00:10:36;;;;;;;13.13;4.03;;;;;;;;;;4345732;33;20194;-81
2021/09/01 00:13:30;;;;;;;10.98;3.65;;;;;;;;;;4344546;33;20163;-80
2021/09/01 00:16:04;;;;;;;14.63;3.67;;;;;;;;;;4348684;33;20237;-81
2021/09/01 00:21:26;;;;;;;13.90;4.10;;;;;;;;;;4301529;33;20176;-81
2021/09/01 00:24:15;;;;;;;16.17;3.95;;;;;;;;;;4340316;33;20175;-81
2021/09/01 00:26:46;;;;;;;12.70;3.83;;;;;;;;;;4358623;32;20175;-81
2021/09/01 00:29:24;;;;;;;;;;;;;;;;;;;;;
2021/09/01 00:32:02;;;;;;;12.48;3.55;;;;;;;;;;4344937;33;20518;-81
2021/09/01 00:34:32;;;;;;;12.85;4.12;;;;;;;;;;4358162;32;20224;-81
2021/09/01 00:37:00;;;;;;;9.15;3.55;;;;;;;;;;4345818;33;20195;-81
2021/09/01 00:42:37;;;;;;;13.65;3.80;;;;;;;;;;4329563;33;20186;-81
2021/09/01 00:45:18;;;;;;;9.80;3.83;;;;;;;;;;4356956;33;20185;-81
2021/09/01 00:48:32;;;;;;;;;;;;;;;;;;;;;
2021/09/01 00:51:33;;;;;;;10.27;3.70;;;;;;;;;;4341049;33;20218;-81
2021/09/01 00:54:34;;;;;;;10.43;3.70;;;;;;;;;;4317331;33;20229;-81
2021/09/01 01:03:46;;;;;;;14.95;3.70;;;;;;;;;;4243492;33;20198;-81
2021/09/01 01:09:51;;;;;;;8.82;3.25;;;;;;;;;;4243584;33;20194;-81
2021/09/01 01:12:46;;;;;;;12.90;3.58;;;;;;;;;;4243486;33;20246;-81
2021/09/01 01:15:33;;;;;;;12.40;3.87;;;;;;;;;;4231603;33;20166;-81
2021/09/01 01:18:20;;;;;;;13.93;3.40;;;;;;;;;;4242802;33;20166;-81
2021/09/01 01:21:14;;;;;;;11.60;3.65;;;;;;;;;;4263097;33;20195;-81
2021/09/01 01:26:43;;;;;;;16.52;3.83;;;;;;;;;;4314817;33;20527;-81
2021/09/01 01:31:58;;;;;;;12.80;3.58;;;;;;;;;;4335420;33;20647;-81
2021/09/01 01:34:23;;;;;;;10.27;3.65;;;;;;;;;;4345219;33;20215;-81
2021/09/01 01:36:49;;;;;;;11.70;3.95;;;;;;;;;;4344702;33;20172;-81
2021/09/01 01:39:35;;;;;;;13.32;3.70;;;;;;;;;;4345418;33;20163;-81
2021/09/01 01:42:19;;;;;;;10.63;3.55;;;;;;;;;;4344776;33;20163;-81
2021/09/01 01:44:48;;;;;;;15.30;4.03;;;;;;;;;;4345396;33;20156;-81
2021/09/01 01:47:13;;;;;;;9.10;3.72;;;;;;;;;;4344532;33;20255;-81
2021/09/01 01:49:50;;;;;;;11.48;4.00;;;;;;;;;;4344570;33;20155;-81
2021/09/01 01:55:10;;;;;;;11.38;3.50;;;;;;;;;;4346590;33;20498;-81
2021/09/01 02:00:37;;;;;;;10.73;3.58;;;;;;;;;;4314351;33;20498;-80
2021/09/01 02:03:16;;;;;;;10.13;4.28;;;;;;;;;;4290757;33;20152;-81
2021/09/01 02:05:56;;;;;;;11.43;3.60;;;;;;;;;;4299788;33;20184;-81
2021/09/01 02:08:47;;;;;;;;;;;;;;;;;;;;;
2021/09/01 02:20:40;;;;;;;12.07;3.78;;;;;;;;;;4328863;33;20154;-81
2021/09/01 02:23:17;;;;;;;11.80;4.00;;;;;;;;;;4316650;33;20215;-80
2021/09/01 02:26:02;;;;;;;;;;;;;;;;;;;;;
2021/09/01 02:29:00;;;;;;;12.77;3.85;;;;;;;;;;4328645;33;20194;-80
2021/09/01 02:31:25;;;;;;;13.75;3.80;;;;;;;;;;4328469;33;20299;-81
2021/09/01 02:34:19;;;;;;;;;;;;;;;;;;;;;
2021/09/01 02:37:01;;;;;;;10.30;3.47;;;;;;;;;;4331861;33;20166;-80
2021/09/01 02:39:33;;;;;;;14.52;3.80;;;;;;;;;;4332725;33;20206;-80
2021/09/01 02:42:35;;;;;;;11.02;3.72;;;;;;;;;;4332390;33;20250;-80
2021/09/01 02:45:06;;;;;;;11.52;3.45;;;;;;;;;;4342674;33;20185;-80
2021/09/01 02:47:32;;;;;;;12.05;3.90;;;;;;;;;;4334184;33;20150;-80
2021/09/01 02:49:59;;;;;;;13.82;3.95;;;;;;;;;;4332312;33;20192;-80
2021/09/01 02:52:25;;;;;;;16.08;4.72;;;;;;;;;;4332184;33;20190;-80
2021/09/01 02:54:50;;;;;;;11.55;3.60;;;;;;;;;;4320412;33;20158;-80
2021/09/01 02:57:21;;;;;;;12.75;4.10;;;;;;;;;;4333797;33;20132;-80
2021/09/01 03:02:45;;;;;;;12.68;4.10;;;;;;;;;;4301958;33;20152;-80
2021/09/01 03:05:23;;;;;;;11.55;3.95;;;;;;;;;;4307862;33;20180;-80
2021/09/01 03:07:58;;;;;;;10.90;3.97;;;;;;;;;;4344998;33;20233;-80
2021/09/01 03:10:53;;;;;;;11.27;3.58;;;;;;;;;;4359386;32;20596;-79
2021/09/01 03:13:36;;;;;;;17.20;4.12;;;;;;;;;;4358720;33;20191;-79
2021/09/01 03:16:10;;;;;;;15.05;4.53;;;;;;;;;;4359284;32;20223;-80
2021/09/01 03:18:40;;;;;;;11.60;4.20;;;;;;;;;;4359600;33;20158;-80
2021/09/01 03:21:06;;;;;;;10.85;4.03;;;;;;;;;;4358950;32;20187;-80
2021/09/01 03:23:38;;;;;;;13.70;4.00;;;;;;;;;;4358405;32;20254;-80
2021/09/01 03:26:22;;;;;;;10.45;3.65;;;;;;;;;;4359412;32;20160;-80
2021/09/01 03:28:50;;;;;;;10.13;3.90;;;;;;;;;;4359076;32;20159;-81
2021/09/01 03:31:24;;;;;;;10.43;3.90;;;;;;;;;;4359075;32;20234;-80
2021/09/01 03:33:56;;;;;;;12.95;3.70;;;;;;;;;;4359240;32;20151;-80
2021/09/01 03:36:41;;;;;;;13.90;4.22;;;;;;;;;;4346122;33;20152;-80
2021/09/01 03:39:08;;;;;;;13.80;4.10;;;;;;;;;;4359134;32;20159;-80
2021/09/01 03:41:42;;;;;;;11.98;4.25;;;;;;;;;;4346317;33;20152;-80
2021/09/01 03:47:20;;;;;;;15.10;3.70;;;;;;;;;;4330256;33;20222;-80
2021/09/01 03:49:54;;;;;;;10.80;3.72;;;;;;;;;;4319784;33;20175;-79
2021/09/01 03:52:20;;;;;;;13.35;4.12;;;;;;;;;;4344302;33;20171;-80
2021/09/01 03:54:45;;;;;;;10.98;3.60;;;;;;;;;;4343792;33;20152;-80
2021/09/01 03:57:52;;;;;;;;;;;;;;;;;;;;;
2021/09/01 04:00:09;;;;;;;12.95;4.22;;;;;;;;;;4331516;33;20190;-80
2021/09/01 04:02:37;;;;;;;12.63;4.12;;;;;;;;;;4331491;33;20155;-80
2021/09/01 04:05:02;;;;;;;14.15;3.90;;;;;;;;;;4331226;33;20180;-79
2021/09/01 04:07:46;;;;;;;10.85;4.47;;;;;;;;;;4331667;33;20219;-81
2021/09/01 04:10:34;;;;;;;;;;;;;;;;;;;;;
2021/09/01 04:13:03;;;;;;;11.02;4.00;;;;;;;;;;4332978;33;20206;-81
2021/09/01 04:16:03;;;;;;;10.48;3.92;;;;;;;;;;4334383;33;20179;-80
2021/09/01 04:18:28;;;;;;;12.32;3.95;;;;;;;;;;4358658;33;20229;-81
2021/09/01 04:21:48;;;;;;;9.43;3.25;;;;;;;;;;4345625;33;20159;-81
2021/09/01 04:23:58;;;;;;;11.30;3.85;;;;;;;;;;4345331;33;20228;-81
2021/09/01 04:26:41;;;;;;;10.60;3.83;;;;;;;;;;4348301;33;20212;-81
2021/09/01 04:29:07;;;;;;;9.68;3.75;;;;;;;;;;4348203;33;20189;-81
2021/09/01 04:31:47;;;;;;;14.20;4.30;;;;;;;;;;4361562;32;20540;-81
2021/09/01 04:34:15;;;;;;;11.93;4.50;;;;;;;;;;4348242;33;20163;-80
2021/09/01 04:36:41;;;;;;;12.85;4.57;;;;;;;;;;4348388;33;20225;-80
2021/09/01 04:39:06;;;;;;;12.35;3.83;;;;;;;;;;4347920;33;20524;-81
2021/09/01 04:41:40;;;;;;;9.82;3.50;;;;;;;;;;4348232;33;20166;-80
2021/09/01 04:44:07;;;;;;;11.80;3.83;;;;;;;;;;4348093;33;20213;-80
2021/09/01 04:46:55;;;;;;;7.93;3.45;;;;;;;;;;4361498;32;20148;-80
2021/09/01 04:49:34;;;;;;;9.55;3.40;;;;;;;;;;4360519;32;20185;-79
2021/09/01 04:52:00;;;;;;;8.52;3.22;;;;;;;;;;4348464;33;20151;-79
2021/09/01 04:54:25;;;;;;;14.80;4.10;;;;;;;;;;4347774;33;20182;-79
2021/09/01 04:56:51;;;;;;;10.95;3.62;;;;;;;;;;4348080;33;20179;-80
2021/09/01 04:59:16;;;;;;;10.90;3.72;;;;;;;;;;4347349;32;20182;-77
2021/09/01 05:01:41;;;;;;;9.65;3.87;;;;;;;;;;4347944;33;20270;-81
2021/09/01 05:04:07;;;;;;;9.20;3.67;;;;;;;;;;4347732;33;20159;-80
2021/09/01 05:06:32;;;;;;;10.55;4.05;;;;;;;;;;4346883;33;20179;-81
2021/09/01 05:09:07;;;;;;;13.27;4.43;;;;;;;;;;4347463;33;20207;-81
2021/09/01 05:11:36;;;;;;;10.45;4.05;;;;;;;;;;4348048;33;20159;-78
2021/09/01 05:14:01;;;;;;;10.57;4.05;;;;;;;;;;4348188;33;20232;-77
2021/09/01 05:16:28;;;;;;;11.63;3.70;;;;;;;;;;4347244;33;20601;-79
2021/09/01 05:19:24;;;;;;;12.95;4.20;;;;;;;;;;4347785;33;20526;-80
2021/09/01 05:21:49;;;;;;;10.73;4.12;;;;;;;;;;4359971;33;20167;-78
2021/09/01 05:24:20;;;;;;;11.65;3.65;;;;;;;;;;4347352;33;20163;-78
2021/09/01 05:26:46;;;;;;;11.30;4.55;;;;;;;;;;4347452;33;20167;-78
2021/09/01 05:29:14;;;;;;;11.98;4.12;;;;;;;;;;4347168;33;20185;-77
2021/09/01 05:31:40;;;;;;;8.80;3.85;;;;;;;;;;4347497;33;20512;-77
2021/09/01 05:34:06;;;;;;;17.02;3.97;;;;;;;;;;4347535;33;20181;-77
2021/09/01 05:36:48;;;;;;;13.65;4.53;;;;;;;;;;4347942;33;20159;-78
2021/09/01 05:39:14;;;;;;;9.82;3.85;;;;;;;;;;4347205;32;20162;-78
2021/09/01 05:41:47;;;;;;;15.88;4.35;;;;;;;;;;4359244;33;20162;-77
2021/09/01 05:44:12;;;;;;;18.33;4.12;;;;;;;;;;4359584;32;20189;-77
2021/09/01 05:46:37;;;;;;;9.88;3.75;;;;;;;;;;4347015;33;20210;-75
2021/09/01 05:49:06;;;;;;;6.47;3.42;;;;;;;;;;4346838;33;20201;-77
2021/09/01 05:51:31;;;;;;;9.00;3.45;;;;;;;;;;4347322;33;20170;-77
2021/09/01 05:54:06;;;;;;;6.50;2.80;;;;;;;;;;4346784;33;20197;-77
2021/09/01 05:56:34;;;;;;;6.85;2.87;;;;;;;;;;4346934;33;20201;-74
2021/09/01 05:59:11;;;;;;;8.00;3.15;;;;;;;;;;4347129;33;20620;-77
2021/09/01 06:01:40;;;;;;;8.02;3.22;;;;;;;;;;4361029;32;20632;-76
2021/09/01 06:04:07;;;;;;;8.75;3.35;;;;;;;;;;4346370;33;20209;-73
2021/09/01 06:06:59;;;;;;;7.12;3.20;;;;;;;;;;4346154;33;20248;-77
2021/09/01 06:09:44;;;;;;;9.98;3.47;;;;;;;;;;4359258;33;20189;-78
2021/09/01 06:12:22;;;;;;;10.77;4.53;;;;;;;;;;4345824;33;20163;-80
2021/09/01 06:14:47;;;;;;;9.77;3.40;;;;;;;;;;4346452;33;20154;-78
2021/09/01 06:17:13;;;;;;;12.15;3.20;;;;;;;;;;4346521;33;20181;-81
2021/09/01 06:19:39;;;;;;;11.85;3.80;;;;;;;;;;4347358;33;20175;-79
2021/09/01 06:22:12;;;;;;;7.87;3.00;;;;;;;;;;4347105;33;20216;-79
2021/09/01 06:24:40;;;;;;;9.18;3.53;;;;;;;;;;4346492;33;20222;-79
2021/09/01 06:27:15;;;;;;;10.52;3.40;;;;;;;;;;4346881;33;20506;-80
2021/09/01 06:29:40;;;;;;;13.23;3.58;;;;;;;;;;4347812;33;20235;-76
2021/09/01 06:32:06;;;;;;;10.10;3.58;;;;;;;;;;4359137;33;20163;-79
2021/09/01 06:34:35;;;;;;;12.13;3.78;;;;;;;;;;4346658;33;20197;-78
2021/09/01 06:37:01;;;;;;;8.10;3.42;;;;;;;;;;4346897;33;20203;-79
2021/09/01 06:39:32;;;;;;;11.50;3.80;;;;;;;;;;4359985;33;20136;-79
2021/09/01 06:41:57;;;;;;;9.95;2.90;;;;;;;;;;4346402;33;20548;-79
2021/09/01 06:44:25;;;;;;;8.13;3.30;;;;;;;;;;4346107;33;20170;-78
2021/09/01 06:46:53;;;;;;;10.45;3.40;;;;;;;;;;4346484;33;20538;-78
2021/09/01 06:49:21;;;;;;;12.73;4.10;;;;;;;;;;4346452;33;20325;-80
2021/09/01 06:51:46;;;;;;;12.93;3.75;;;;;;;;;;4358519;33;20159;-78
2021/09/01 06:54:15;;;;;;;9.13;2.95;;;;;;;;;;4358673;33;20190;-78
2021/09/01 06:56:40;;;;;;;7.72;3.00;;;;;;;;;;4358390;33;20167;-79
2021/09/01 06:59:10;;;;;;;11.23;3.62;;;;;;;;;;4358945;33;20181;-79
2021/09/01 07:01:35;;;;;;;9.13;3.62;;;;;;;;;;4346898;33;20159;-78
2021/09/01 07:04:02;;;;;;;11.73;4.43;;;;;;;;;;4358440;33;20302;-79
2021/09/01 07:06:30;;;;;;;10.43;3.20;;;;;;;;;;4358444;33;20494;-78
2021/09/01 07:09:01;;;;;;;9.02;3.28;;;;;;;;;;4358510;33;20190;-79
2021/09/01 07:11:30;;;;;;;9.10;3.87;;;;;;;;;;4346098;33;20189;-78
2021/09/01 07:13:56;;;;;;;10.48;2.85;;;;;;;;;;4358154;33;20229;-79
2021/09/01 07:16:26;;;;;;;7.87;3.08;;;;;;;;;;4345798;33;20488;-79
2021/09/01 07:18:54;;;;;;;8.02;2.78;;;;;;;;;;4360591;33;20173;-79
2021/09/01 07:21:22;;;;;;;8.45;2.67;;;;;;;;;;4358354;33;20167;-78
2021/09/01 07:24:00;;;;;;;6.97;2.90;;;;;;;;;;4359055;32;20286;-79
2021/09/01 07:29:37;;;;;;;6.20;2.25;;;;;;;;;;4316224;33;20578;-79
2021/09/01 07:32:24;;;;;;;7.55;2.50;;;;;;;;;;4360996;32;20178;-79
2021/09/01 07:34:52;;;;;;;7.82;2.33;;;;;;;;;;4346514;33;20219;-79
2021/09/01 07:37:37;;;;;;;6.05;2.10;;;;;;;;;;4360750;33;20199;-78
2021/09/01 07:40:02;;;;;;;7.22;2.72;;;;;;;;;;4351072;33;20170;-78
2021/09/01 07:42:48;;;;;;;;;;;;;;;;;;;;;
2021/09/01 07:48:01;;;;;;;7.53;2.53;;;;;;;;;;4316329;33;20178;-79
2021/09/01 07:53:54;;;;;;;6.25;2.50;;;;;;;;;;4341195;33;20181;-80
2021/09/01 07:56:21;;;;;;;5.97;2.47;;;;;;;;;;4344458;33;20197;-79
2021/09/01 07:59:04;;;;;;;7.87;2.67;;;;;;;;;;4348521;33;20185;-78
2021/09/01 08:01:33;;;;;;;10.32;2.83;;;;;;;;;;4348433;33;20155;-81
2021/09/01 08:04:17;;;;;;;6.37;2.28;;;;;;;;;;4334038;33;20648;-79
2021/09/01 08:07:02;;;;;;;6.10;1.98;;;;;;;;;;4366447;32;20194;-80
2021/09/01 08:09:33;;;;;;;9.07;2.67;;;;;;;;;;4360949;32;20233;-80
2021/09/01 08:12:10;;;;;;;8.52;2.80;;;;;;;;;;4351735;33;20174;-79
2021/09/01 08:14:41;;;;;;;9.68;3.08;;;;;;;;;;4354290;33;20166;-78
2021/09/01 08:17:10;;;;;;;12.23;3.22;;;;;;;;;;4357023;32;20608;-79
2021/09/01 08:19:41;;;;;;;10.60;3.03;;;;;;;;;;4367246;32;20468;-78
2021/09/01 08:22:32;;;;;;;9.02;3.10;;;;;;;;;;4361902;32;20155;-79
2021/09/01 08:25:21;;;;;;;10.50;2.95;;;;;;;;;;4325053;33;20182;-80
2021/09/01 08:31:01;;;;;;;6.90;2.92;;;;;;;;;;4285149;33;20172;-79
2021/09/01 08:33:59;;;;;;;7.05;3.05;;;;;;;;;;4333374;33;20274;-78
2021/09/01 08:36:31;;;;;;;12.02;3.40;;;;;;;;;;4330313;33;20155;-78
2021/09/01 08:39:09;;;;;;;8.30;2.83;;;;;;;;;;4331275;33;20182;-77
2021/09/01 08:44:40;;;;;;;6.03;2.55;;;;;;;;;;4331954;33;20158;-78
2021/09/01 08:47:09;;;;;;;7.05;2.97;;;;;;;;;;4330665;33;20183;-77
2021/09/01 08:49:35;;;;;;;6.93;2.37;;;;;;;;;;4331094;33;20189;-77
2021/09/01 08:55:02;;;;;;;7.60;2.47;;;;;;;;;;4300353;33;20179;-76
2021/09/01 08:57:57;;;;;;;;;;;;;;;;;;;;;
2021/09/01 09:00:22;;;;;;;5.55;2.40;;;;;;;;;;4331451;33;20443;-76
2021/09/01 09:03:19;;;;;;;6.65;2.87;;;;;;;;;;4318005;33;20214;-75
2021/09/01 09:05:46;;;;;;;6.12;2.20;;;;;;;;;;4329149;33;20179;-82
2021/09/01 09:08:13;;;;;;;5.95;2.28;;;;;;;;;;4331945;33;20147;-81
2021/09/01 09:10:48;;;;;;;6.87;2.37;;;;;;;;;;4339005;33;20195;-81
2021/09/01 09:13:34;;;;;;;7.22;2.22;;;;;;;;;;4332778;33;20166;-80
2021/09/01 09:16:09;;;;;;;6.82;2.15;;;;;;;;;;4333181;33;20542;-80
2021/09/01 09:18:55;;;;;;;6.70;2.17;;;;;;;;;;4334026;33;20189;-82
2021/09/01 09:21:21;;;;;;;6.22;2.33;;;;;;;;;;4348437;33;20150;-82
2021/09/01 09:23:49;;;;;;;7.03;2.45;;;;;;;;;;4349435;33;20462;-82
2021/09/01 09:26:32;;;;;;;8.52;2.33;;;;;;;;;;4361627;32;20155;-81
2021/09/01 09:29:04;;;;;;;5.43;2.30;;;;;;;;;;4360470;33;20147;-81
2021/09/01 09:31:32;;;;;;;10.00;2.67;;;;;;;;;;4359870;33;20155;-82
2021/09/01 09:34:14;;;;;;;6.12;2.37;;;;;;;;;;4360215;32;20155;-82
2021/09/01 09:36:58;;;;;;;5.45;2.10;;;;;;;;;;4347543;33;20213;-82
2021/09/01 09:39:35;;;;;;;7.82;2.72;;;;;;;;;;4359596;32;20200;-77
2021/09/01 09:42:01;;;;;;;6.82;2.70;;;;;;;;;;4360696;32;20209;-81
2021/09/01 09:44:35;;;;;;;8.05;2.60;;;;;;;;;;4371826;32;20505;-81
2021/09/01 09:47:06;;;;;;;7.75;2.72;;;;;;;;;;4359881;32;20150;-82
2021/09/01 09:49:35;;;;;;;8.00;2.62;;;;;;;;;;4359462;33;20155;-81
2021/09/01 09:52:15;;;;;;;8.70;2.62;;;;;;;;;;4348880;32;20181;-81
2021/09/01 09:55:02;;;;;;;;;;;;;;;;;;;;;
2021/09/01 09:57:28;;;;;;;8.07;2.60;;;;;;;;;;4360703;32;20171;-82
2021/09/01 09:59:53;;;;;;;7.22;2.58;;;;;;;;;;4362559;32;20626;-79
2021/09/01 10:02:31;;;;;;;9.45;3.00;;;;;;;;;;4347113;32;20159;-82
2021/09/01 10:05:09;;;;;;;9.15;2.70;;;;;;;;;;4357794;33;20478;-78
2021/09/01 10:07:35;;;;;;;6.37;2.42;;;;;;;;;;4359876;32;20215;-80
2021/09/01 10:10:01;;;;;;;5.75;2.08;;;;;;;;;;4367676;32;20487;-82
2021/09/01 10:15:14;;;;;;;5.28;2.15;;;;;;;;;;4356414;33;20230;-81
2021/09/01 10:17:40;;;;;;;10.40;2.85;;;;;;;;;;4363315;32;20170;-78
2021/09/01 10:20:16;;;;;;;5.93;2.17;;;;;;;;;;4346267;33;20159;-82
2021/09/01 10:22:56;;;;;;;4.87;2.05;;;;;;;;;;4346939;33;20223;-81
2021/09/01 10:25:42;;;;;;;5.25;1.80;;;;;;;;;;4343951;33;20225;-82
2021/09/01 10:28:19;;;;;;;6.28;2.10;;;;;;;;;;4344325;33;20190;-82
2021/09/01 10:31:11;;;;;;;5.00;1.98;;;;;;;;;;4356440;33;20220;-82
2021/09/01 10:33:51;;;;;;;5.70;1.83;;;;;;;;;;4356110;33;20537;-82
2021/09/01 10:36:43;;;;;;;4.32;1.58;;;;;;;;;;4345941;33;20147;-83
2021/09/01 10:39:13;;;;;;;3.80;1.80;;;;;;;;;;4344869;33;20274;-81
2021/09/01 10:42:29;;;;;;;3.20;1.75;;;;;;;;;;4345804;33;20228;-82
2021/09/01 10:44:35;;;;;;;5.37;1.73;;;;;;;;;;4339119;33;20517;-82
2021/09/01 10:47:34;;;;;;;6.15;1.90;;;;;;;;;;4345498;33;20549;-83
2021/09/01 10:50:06;;;;;;;5.65;1.58;;;;;;;;;;4331188;33;20552;-82
2021/09/01 10:53:06;;;;;;;4.37;1.70;;;;;;;;;;4344339;33;20147;-82
2021/09/01 10:55:32;;;;;;;4.55;1.58;;;;;;;;;;4341190;33;20172;-81
2021/09/01 10:58:16;;;;;;;6.85;2.60;;;;;;;;;;4344709;33;20653;-82
2021/09/01 11:00:45;;;;;;;7.43;2.95;;;;;;;;;;4359184;32;20592;-82
2021/09/01 11:03:30;;;;;;;8.10;2.92;;;;;;;;;;4346432;33;20155;-80
2021/09/01 11:06:08;;;;;;;8.25;2.70;;;;;;;;;;4346505;33;20238;-81
2021/09/01 11:08:33;;;;;;;6.87;3.15;;;;;;;;;;4347074;33;20155;-81
2021/09/01 11:11:00;;;;;;;10.38;3.05;;;;;;;;;;4347697;33;20147;-82
2021/09/01 11:13:45;;;;;;;8.63;2.85;;;;;;;;;;4346527;33;20615;-82
2021/09/01 11:16:18;;;;;;;8.82;3.00;;;;;;;;;;4347354;33;20500;-81
2021/09/01 11:19:11;;;;;;;7.62;2.70;;;;;;;;;;4346514;33;20152;-82
2021/09/01 11:22:00;;;;;;;9.13;3.00;;;;;;;;;;4359233;32;20160;-83
2021/09/01 11:24:49;;;;;;;7.45;2.72;;;;;;;;;;4346052;33;20193;-82
2021/09/01 11:27:15;;;;;;;9.68;2.92;;;;;;;;;;4346887;33;20202;-77
2021/09/01 11:29:41;;;;;;;6.78;2.62;;;;;;;;;;4346942;33;20159;-82
2021/09/01 11:32:07;;;;;;;5.30;2.40;;;;;;;;;;4347613;32;20132;-82
2021/09/01 11:34:35;;;;;;;5.18;2.17;;;;;;;;;;4346076;33;20147;-80
2021/09/01 11:37:05;;;;;;;9.82;2.50;;;;;;;;;;4347411;32;20158;-81
2021/09/01 11:39:30;;;;;;;4.57;2.12;;;;;;;;;;4346741;33;20214;-81
2021/09/01 11:42:07;;;;;;;2.65;1.50;;;;;;;;;;4347147;33;20638;-82
2021/09/01 11:44:34;;;;;;;5.28;2.20;;;;;;;;;;4346691;33;20173;-82
2021/09/01 11:47:08;;;;;;;9.10;2.12;;;;;;;;;;4346226;33;20171;-82
2021/09/01 11:49:36;;;;;;;8.98;1.62;;;;;;;;;;4346284;33;20190;-82
2021/09/01 11:52:01;;;;;;;4.95;1.87;;;;;;;;;;4346096;33;20159;-81
2021/09/01 11:54:30;;;;;;;5.95;2.25;;;;;;;;;;4346491;33;20529;-80
2021/09/01 11:56:55;;;;;;;4.85;2.37;;;;;;;;;;4347039;33;20154;-82
2021/09/01 11:59:23;;;;;;;8.73;3.22;;;;;;;;;;4346257;33;20171;-82
2021/09/01 12:01:51;;;;;;;6.28;2.58;;;;;;;;;;4345591;33;20213;-81
2021/09/01 12:04:18;;;;;;;5.97;2.37;;;;;;;;;;4332898;33;20160;-82
2021/09/01 12:06:47;;;;;;;5.53;2.03;;;;;;;;;;4358025;32;20178;-82
2021/09/01 12:09:18;;;;;;;5.05;1.92;;;;;;;;;;4356241;32;20508;-81
2021/09/01 12:11:48;;;;;;;5.87;2.62;;;;;;;;;;4345714;33;20179;-82
2021/09/01 12:14:14;;;;;;;9.73;2.53;;;;;;;;;;4358477;32;20182;-82
2021/09/01 12:16:39;;;;;;;5.85;2.00;;;;;;;;;;4333293;33;20160;-82
2021/09/01 12:19:11;;;;;;;4.57;2.00;;;;;;;;;;4347276;33;20128;-80
2021/09/01 12:21:44;;;;;;;8.20;2.10;;;;;;;;;;4345617;33;20628;-82
2021/09/01 12:24:10;;;;;;;4.75;2.30;;;;;;;;;;4345369;33;20599;-81
2021/09/01 12:26:51;;;;;;;10.82;2.95;;;;;;;;;;4358120;33;20597;-79
2021/09/01 12:29:56;;;;;;;8.15;2.78;;;;;;;;;;4357725;33;20164;-78
2021/09/01 12:32:22;;;;;;;6.78;2.22;;;;;;;;;;4345606;33;20186;-78
2021/09/01 12:34:52;;;;;;;7.43;2.28;;;;;;;;;;4346820;33;20127;-79
2021/09/01 12:37:22;;;;;;;7.00;2.53;;;;;;;;;;4357623;32;20182;-79
2021/09/01 12:39:57;;;;;;;5.25;2.03;;;;;;;;;;4357302;32;20210;-79
2021/09/01 12:42:43;;;;;;;4.95;2.30;;;;;;;;;;4357770;32;20597;-79
2021/09/01 12:45:18;;;;;;;5.18;2.40;;;;;;;;;;4357693;32;20285;-78
2021/09/01 12:47:53;;;;;;;6.90;2.35;;;;;;;;;;4357788;32;20150;-78
2021/09/01 12:50:19;;;;;;;6.85;2.20;;;;;;;;;;4357712;32;20241;-79
2021/09/01 12:52:44;;;;;;;6.72;1.77;;;;;;;;;;4345398;33;20156;-78
2021/09/01 12:55:09;;;;;;;4.68;2.15;;;;;;;;;;4344627;33;20155;-76
2021/09/01 12:57:35;;;;;;;5.55;2.62;;;;;;;;;;4345587;33;20190;-79
2021/09/01 13:00:00;;;;;;;7.03;2.30;;;;;;;;;;4345196;33;20156;-79
2021/09/01 13:02:29;;;;;;;4.25;2.17;;;;;;;;;;4347179;33;20205;-79
2021/09/01 13:04:57;;;;;;;6.07;2.50;;;;;;;;;;4344779;33;20155;-77
2021/09/01 13:07:22;;;;;;;5.50;2.33;;;;;;;;;;4356108;33;20151;-78
2021/09/01 13:09:53;;;;;;;3.62;2.00;;;;;;;;;;4344802;33;20222;-78
2021/09/01 13:12:18;;;;;;;5.37;2.17;;;;;;;;;;4357383;32;20581;-79
2021/09/01 13:14:49;;;;;;;6.32;2.20;;;;;;;;;;4344904;33;20156;-78
2021/09/01 13:17:25;;;;;;;5.37;2.20;;;;;;;;;;4357168;32;20187;-78
2021/09/01 13:20:03;;;;;;;9.02;2.70;;;;;;;;;;4357012;32;20166;-79
2021/09/01 13:25:18;;;;;;;5.15;2.28;;;;;;;;;;4337118;33;20171;-80
2021/09/01 13:27:44;;;;;;;5.47;2.60;;;;;;;;;;4346003;33;20162;-78
2021/09/01 13:30:12;;;;;;;6.75;2.47;;;;;;;;;;4357354;33;20156;-79
2021/09/01 13:32:41;;;;;;;5.72;2.87;;;;;;;;;;4344875;33;20474;-81
2021/09/01 13:35:08;;;;;;;8.65;2.83;;;;;;;;;;4357146;33;20163;-81
2021/09/01 13:37:36;;;;;;;3.90;2.28;;;;;;;;;;4344513;33;20159;-80
2021/09/01 13:40:02;;;;;;;7.22;2.85;;;;;;;;;;4344589;33;20222;-81
2021/09/01 13:42:30;;;;;;;7.75;2.85;;;;;;;;;;4343939;33;20152;-80
2021/09/01 13:44:58;;;;;;;7.57;2.83;;;;;;;;;;4344194;33;20155;-81
2021/09/01 13:47:24;;;;;;;5.55;2.80;;;;;;;;;;4356672;32;20234;-81
2021/09/01 13:49:49;;;;;;;4.97;2.65;;;;;;;;;;4344752;33;20174;-79
2021/09/01 13:52:16;;;;;;;8.07;2.83;;;;;;;;;;4344531;33;20589;-81
2021/09/01 13:54:41;;;;;;;6.55;2.80;;;;;;;;;;4356781;33;20155;-81
2021/09/01 13:57:06;;;;;;;6.55;2.80;;;;;;;;;;4344303;33;20163;-80
2021/09/01 13:59:32;;;;;;;5.45;2.53;;;;;;;;;;4344073;33;20156;-80
2021/09/01 14:02:06;;;;;;;4.60;2.80;;;;;;;;;;4345222;33;20131;-80
2021/09/01 14:04:31;;;;;;;6.55;2.30;;;;;;;;;;4356597;32;20643;-80
2021/09/01 14:06:56;;;;;;;5.15;2.40;;;;;;;;;;4356086;33;20148;-80
2021/09/01 14:09:28;;;;;;;5.00;2.33;;;;;;;;;;4356207;33;20172;-81
2021/09/01 14:12:14;;;;;;;5.30;2.20;;;;;;;;;;4356102;32;20256;-81
2021/09/01 14:14:46;;;;;;;5.45;2.08;;;;;;;;;;4346420;33;20150;-79
2021/09/01 14:17:11;;;;;;;4.35;1.98;;;;;;;;;;4344163;33;20155;-81
2021/09/01 14:19:38;;;;;;;4.25;2.03;;;;;;;;;;4343881;33;20181;-79
2021/09/01 14:22:05;;;;;;;8.52;2.40;;;;;;;;;;4355135;33;20716;-79
2021/09/01 14:24:57;;;;;;;7.97;3.08;;;;;;;;;;4360360;32;20151;-82
2021/09/01 14:27:23;;;;;;;5.55;2.45;;;;;;;;;;4343831;33;20155;-80
2021/09/01 14:29:48;;;;;;;4.75;2.10;;;;;;;;;;4350529;32;20199;-82
2021/09/01 14:32:16;;;;;;;8.55;2.30;;;;;;;;;;4331109;33;20156;-79
2021/09/01 14:34:41;;;;;;;4.37;2.20;;;;;;;;;;4338858;33;20539;-80
2021/09/01 14:37:09;;;;;;;5.45;2.55;;;;;;;;;;4356481;33;20189;-81
2021/09/01 14:39:34;;;;;;;7.22;2.72;;;;;;;;;;4355865;33;20167;-79
2021/09/01 14:42:00;;;;;;;6.85;2.83;;;;;;;;;;4344223;33;20225;-80
2021/09/01 14:44:37;;;;;;;8.48;2.70;;;;;;;;;;4337813;33;20167;-79
2021/09/01 14:47:04;;;;;;;10.18;3.65;;;;;;;;;;4351987;33;20205;-79
2021/09/01 14:49:30;;;;;;;6.10;2.72;;;;;;;;;;4331596;33;20254;-79
2021/09/01 14:51:55;;;;;;;7.15;2.65;;;;;;;;;;4343936;33;20148;-77
2021/09/01 14:54:21;;;;;;;5.60;2.60;;;;;;;;;;4344234;33;20172;-79
2021/09/01 14:56:46;;;;;;;6.82;2.08;;;;;;;;;;4343736;33;20151;-80
2021/09/01 14:59:34;;;;;;;;;;;;;;;;;;;;;
2021/09/01 15:02:06;;;;;;;5.43;2.50;;;;;;;;;;4344494;33;20159;-80
2021/09/01 15:04:31;;;;;;;8.05;2.70;;;;;;;;;;4345878;33;20151;-79
2021/09/01 15:06:56;;;;;;;5.07;2.53;;;;;;;;;;4343821;33;20210;-79
2021/09/01 15:09:23;;;;;;;4.80;2.45;;;;;;;;;;4345097;33;20143;-80
2021/09/01 15:11:48;;;;;;;8.13;2.58;;;;;;;;;;4343746;33;20206;-80
2021/09/01 15:14:25;;;;;;;4.85;2.10;;;;;;;;;;4343837;33;20170;-80
2021/09/01 15:17:09;;;;;;;5.80;2.20;;;;;;;;;;4352813;33;20159;-81
2021/09/01 15:19:38;;;;;;;6.37;2.60;;;;;;;;;;4356202;33;20605;-79
2021/09/01 15:22:05;;;;;;;4.95;2.30;;;;;;;;;;4344301;33;20167;-79
2021/09/01 15:25:03;;;;;;;5.55;2.67;;;;;;;;;;4344279;33;20250;-80
2021/09/01 15:27:35;;;;;;;8.55;2.47;;;;;;;;;;4329193;33;20191;-79
2021/09/01 15:30:02;;;;;;;5.32;2.35;;;;;;;;;;4343746;33;20241;-79
2021/09/01 15:32:28;;;;;;;5.10;2.50;;;;;;;;;;4331253;33;20174;-80
2021/09/01 15:34:53;;;;;;;6.80;2.30;;;;;;;;;;4343877;33;20494;-80
2021/09/01 15:37:20;;;;;;;6.10;2.55;;;;;;;;;;4344886;33;20201;-80
2021/09/01 15:39:45;;;;;;;6.32;2.70;;;;;;;;;;4331515;33;20219;-78
2021/09/01 15:42:11;;;;;;;8.52;2.55;;;;;;;;;;4331242;33;20190;-80
2021/09/01 15:44:41;;;;;;;10.05;2.92;;;;;;;;;;4332562;33;20175;-80
2021/09/01 15:47:07;;;;;;;7.53;2.65;;;;;;;;;;4333997;33;20186;-80
2021/09/01 15:49:47;;;;;;;4.95;2.40;;;;;;;;;;4334433;33;20168;-80
2021/09/01 15:52:12;;;;;;;6.30;2.58;;;;;;;;;;4343090;33;20163;-79
2021/09/01 15:54:38;;;;;;;4.72;2.55;;;;;;;;;;4344398;33;20286;-79
2021/09/01 15:57:22;;;;;;;;;;;;;;;;;;;;;
2021/09/01 15:59:55;;;;;;;7.00;2.50;;;;;;;;;;4348185;33;20178;-79
2021/09/01 16:05:48;;;;;;;;;;;;;;;;;;;;;
2021/09/01 16:08:20;;;;;;;6.93;3.00;;;;;;;;;;4332304;33;20514;-80
2021/09/01 16:10:58;;;;;;;5.32;2.55;;;;;;;;;;4319705;33;20164;-79
2021/09/01 16:13:24;;;;;;;7.05;3.05;;;;;;;;;;4330980;33;20164;-79
2021/09/01 16:15:59;;;;;;;5.25;2.50;;;;;;;;;;4335770;33;20154;-80
2021/09/01 16:18:52;;;;;;;6.85;3.08;;;;;;;;;;4332278;33;20215;-79
2021/09/01 16:21:26;;;;;;;6.35;3.00;;;;;;;;;;4330873;33;20163;-80
2021/09/01 16:23:52;;;;;;;5.93;2.50;;;;;;;;;;4331371;33;20219;-78
2021/09/01 16:26:17;;;;;;;7.53;2.37;;;;;;;;;;4337485;33;20221;-81
2021/09/01 16:28:43;;;;;;;9.05;2.90;;;;;;;;;;4342791;33;20164;-80
2021/09/01 16:31:11;;;;;;;4.82;2.65;;;;;;;;;;4343431;33;20285;-79
2021/09/01 16:33:36;;;;;;;7.15;2.83;;;;;;;;;;4342791;33;20160;-79
2021/09/01 16:36:05;;;;;;;8.98;3.08;;;;;;;;;;4330738;33;20136;-80